Time;durP1;ratioP1;P1;durP2;ratioP2;P2;SDS_P1;SDS_P2;PMS_P1;PMS_P2;Temp;Humidity;BMP_temperature;BMP_pressure;BME280_temperature;BME280_humidity;BME280_pressure;Samples;Min_cycle;Max_cycle;Signal;HPM_P1;HPM_P2
2023/09/13 00:00:54;;;;;;;19.30;15.37;;;20.40;1.00;;;;;;5015174;28;20226;-83
2023/09/13 00:03:20;;;;;;;21.10;16.60;;;20.40;1.00;;;;;;5023416;28;20187;-83
2023/09/13 00:05:46;;;;;;;19.83;17.40;;;20.30;1.00;;;;;;5019499;28;20449;-82
2023/09/13 00:08:12;;;;;;;23.70;18.00;;;20.30;1.00;;;;;;5025015;28;20183;-81
2023/09/13 00:10:37;;;;;;;21.30;18.97;;;20.30;1.00;;;;;;5018656;28;20466;-82
2023/09/13 00:13:03;;;;;;;22.30;19.03;;;20.30;1.00;;;;;;5018390;28;20278;-83
2023/09/13 00:15:28;;;;;;;22.23;17.47;;;20.30;1.00;;;;;;5034065;28;20206;-82
2023/09/13 00:17:54;;;;;;;23.27;18.23;;;20.20;1.00;;;;;;5022723;28;20287;-82
2023/09/13 00:20:19;;;;;;;23.87;19.30;;;20.20;1.00;;;;;;5022572;28;20222;-82
2023/09/13 00:22:45;;;;;;;26.40;18.27;;;20.20;1.00;;;;;;5021012;28;20205;-83
2023/09/13 00:25:11;;;;;;;20.87;17.73;;;20.20;1.00;;;;;;5017704;28;20183;-82
2023/09/13 00:27:36;;;;;;;25.27;19.73;;;20.10;1.00;;;;;;5018985;28;20190;-82
2023/09/13 00:30:02;;;;;;;23.30;18.97;;;20.10;1.00;;;;;;5013883;28;20220;-81
2023/09/13 00:32:28;;;;;;;26.30;20.93;;;20.10;1.00;;;;;;5021825;28;20190;-81
2023/09/13 00:34:56;;;;;;;29.27;20.40;;;20.00;1.00;;;;;;5019269;28;20452;-81
2023/09/13 00:37:21;;;;;;;26.67;21.37;;;20.00;1.00;;;;;;5023202;28;20198;-82
2023/09/13 00:39:47;;;;;;;28.80;22.43;;;20.00;1.00;;;;;;5018579;28;21160;-82
2023/09/13 00:42:12;;;;;;;31.73;21.87;;;20.00;1.00;;;;;;5025289;28;20265;-82
2023/09/13 00:44:38;;;;;;;28.90;22.33;;;19.90;1.00;;;;;;5020292;28;20887;-83
2023/09/13 00:47:04;;;;;;;30.70;21.80;;;19.90;1.00;;;;;;5023070;28;20190;-82
2023/09/13 00:49:29;;;;;;;35.17;24.33;;;19.90;1.00;;;;;;5019889;28;20187;-82
2023/09/13 00:51:57;;;;;;;30.67;21.77;;;19.90;1.00;;;;;;5025530;28;20211;-82
2023/09/13 00:54:23;;;;;;;33.40;23.60;;;19.90;1.00;;;;;;5023780;28;20216;-84
2023/09/13 00:56:49;;;;;;;28.87;23.03;;;19.90;1.00;;;;;;5021288;28;20449;-83
2023/09/13 00:59:15;;;;;;;28.37;22.30;;;19.90;1.00;;;;;;5018521;28;20519;-82
2023/09/13 01:01:40;;;;;;;34.00;22.80;;;19.90;1.00;;;;;;5021689;28;20214;-82
2023/09/13 01:04:06;;;;;;;35.07;22.73;;;19.90;1.00;;;;;;5021979;28;20193;-83
2023/09/13 01:06:33;;;;;;;32.10;23.00;;;19.90;1.00;;;;;;5022790;28;20194;-82
2023/09/13 01:08:58;;;;;;;29.70;23.40;;;19.90;1.00;;;;;;5024823;28;20201;-83
2023/09/13 01:11:25;;;;;;;31.53;21.97;;;19.90;1.00;;;;;;5024150;28;20926;-84
2023/09/13 01:13:50;;;;;;;30.10;22.67;;;19.90;1.00;;;;;;5025214;28;20218;-81
2023/09/13 01:16:34;;;;;;;36.90;24.20;;;19.90;1.00;;;;;;5026071;28;20874;-82
2023/09/13 01:19:20;;;;;;;37.17;23.57;;;19.90;1.00;;;;;;5015850;28;20210;-83
2023/09/13 01:22:18;;;;;;;34.83;23.73;;;19.90;1.00;;;;;;5021273;28;20489;-83
2023/09/13 01:25:21;;;;;;;30.93;23.80;;;19.90;1.00;;;;;;5035686;28;20445;-83
2023/09/13 01:27:54;;;;;;;35.93;23.50;;;19.90;1.00;;;;;;5022940;28;20445;-83
2023/09/13 01:30:21;;;;;;;32.60;24.47;;;19.90;1.00;;;;;;5020250;28;20878;-82
2023/09/13 01:32:47;;;;;;;34.43;23.83;;;19.90;1.00;;;;;;5025077;28;20453;-83
2023/09/13 01:35:12;;;;;;;35.07;23.00;;;19.90;1.00;;;;;;5024131;28;20555;-81
2023/09/13 01:37:38;;;;;;;29.10;22.47;;;20.00;1.00;;;;;;5020693;28;20286;-82
2023/09/13 01:40:06;;;;;;;32.50;24.17;;;20.00;1.00;;;;;;5021262;28;20214;-82
2023/09/13 01:42:33;;;;;;;40.33;24.43;;;20.00;1.00;;;;;;5015928;28;20198;-81
2023/09/13 01:44:59;;;;;;;45.87;29.43;;;20.00;1.00;;;;;;5019816;28;20939;-84
2023/09/13 01:47:28;;;;;;;43.33;29.80;;;20.10;1.00;;;;;;5019297;28;20445;-83
2023/09/13 01:49:54;;;;;;;49.63;32.27;;;20.10;1.00;;;;;;5032860;28;20822;-83
2023/09/13 01:52:19;;;;;;;59.57;37.70;;;20.10;1.00;;;;;;5019618;28;20454;-83
2023/09/13 01:54:45;;;;;;;55.07;35.70;;;20.10;1.00;;;;;;5020241;28;20442;-83
2023/09/13 01:57:11;;;;;;;60.43;36.60;;;20.10;1.00;;;;;;5020200;28;20281;-81
2023/09/13 01:59:36;;;;;;;62.43;39.50;;;20.10;1.00;;;;;;5022657;28;20666;-79
2023/09/13 02:02:02;;;;;;;71.30;42.03;;;20.10;1.00;;;;;;5022038;28;20191;-83
2023/09/13 02:04:32;;;;;;;67.80;40.23;;;20.10;1.00;;;;;;5017638;28;20882;-82
2023/09/13 02:07:02;;;;;;;75.67;41.73;;;20.10;1.00;;;;;;5016982;28;20285;-80
2023/09/13 02:09:28;;;;;;;77.63;44.20;;;20.20;1.00;;;;;;5018434;28;20498;-82
2023/09/13 02:11:53;;;;;;;78.37;45.30;;;20.20;1.00;;;;;;5035526;28;20465;-82
2023/09/13 02:14:19;;;;;;;71.20;45.20;;;20.20;1.00;;;;;;5022477;28;20205;-85
2023/09/13 02:16:45;;;;;;;74.30;45.03;;;20.20;1.00;;;;;;5018266;28;20267;-83
2023/09/13 02:19:10;;;;;;;70.50;44.17;;;20.20;1.00;;;;;;5018135;28;20516;-82
2023/09/13 02:21:36;;;;;;;69.60;41.77;;;20.30;1.00;;;;;;5021099;28;20577;-82
2023/09/13 02:24:01;;;;;;;71.27;43.30;;;20.30;1.00;;;;;;5017637;28;20213;-83
2023/09/13 02:26:27;;;;;;;65.90;41.97;;;20.30;1.00;;;;;;5016564;28;20198;-82
2023/09/13 02:28:53;;;;;;;74.73;42.03;;;20.20;1.00;;;;;;5022842;28;20183;-82
2023/09/13 02:31:26;;;;;;;69.63;41.23;;;20.20;1.00;;;;;;5022538;28;20653;-82
2023/09/13 02:33:53;;;;;;;63.93;38.30;;;20.30;1.00;;;;;;5019781;28;20496;-82
2023/09/13 02:36:18;;;;;;;68.40;41.60;;;20.30;1.00;;;;;;5023514;28;20958;-83
2023/09/13 02:38:44;;;;;;;72.50;44.77;;;20.30;1.00;;;;;;5034944;28;20456;-81
2023/09/13 02:41:10;;;;;;;74.73;42.73;;;20.30;1.00;;;;;;5025003;28;20214;-82
2023/09/13 02:43:36;;;;;;;76.67;43.07;;;20.30;1.00;;;;;;5019877;28;20187;-81
2023/09/13 02:46:02;;;;;;;73.17;43.30;;;20.30;1.00;;;;;;5018975;28;20613;-83
2023/09/13 02:48:28;;;;;;;81.93;48.07;;;20.30;1.00;;;;;;5024333;28;20440;-83
2023/09/13 02:50:54;;;;;;;87.17;46.23;;;20.30;1.00;;;;;;5019995;28;20870;-82
2023/09/13 02:53:19;;;;;;;80.87;45.77;;;20.30;1.00;;;;;;5024579;28;20452;-83
2023/09/13 02:55:45;;;;;;;99.00;51.20;;;20.30;1.00;;;;;;5016077;28;20187;-83
2023/09/13 02:58:11;;;;;;;88.70;49.17;;;20.30;1.00;;;;;;5033347;28;20209;-82
2023/09/13 03:00:36;;;;;;;87.40;49.10;;;20.30;1.00;;;;;;5017262;28;20211;-82
2023/09/13 03:03:02;;;;;;;83.43;47.80;;;20.30;1.00;;;;;;5021289;28;20437;-83
2023/09/13 03:05:27;;;;;;;81.13;47.40;;;20.30;1.00;;;;;;5019523;28;20174;-84
2023/09/13 03:07:56;;;;;;;82.33;48.53;;;20.30;1.00;;;;;;5020823;28;20182;-81
2023/09/13 03:10:22;;;;;;;93.97;49.90;;;20.20;1.00;;;;;;5023979;28;20265;-81
2023/09/13 03:12:47;;;;;;;84.53;49.40;;;20.20;1.00;;;;;;5011322;28;20737;-82
2023/09/13 03:15:13;;;;;;;103.50;53.00;;;20.10;1.00;;;;;;5035792;28;20195;-83
2023/09/13 03:17:38;;;;;;;94.57;51.80;;;20.10;1.00;;;;;;5018367;28;20190;-82
2023/09/13 03:20:04;;;;;;;94.40;52.67;;;20.10;1.00;;;;;;5034233;28;20341;-84
2023/09/13 03:22:30;;;;;;;102.60;52.53;;;20.10;1.00;;;;;;5021558;28;20263;-82
2023/09/13 03:24:55;;;;;;;94.43;52.23;;;20.10;1.00;;;;;;5019174;28;20470;-82
2023/09/13 03:27:21;;;;;;;97.63;55.90;;;20.10;1.00;;;;;;5021521;28;20187;-82
2023/09/13 03:29:46;;;;;;;96.00;54.00;;;20.10;1.00;;;;;;5018376;28;20232;-83
2023/09/13 03:32:12;;;;;;;91.63;54.90;;;20.10;1.00;;;;;;5015480;28;20246;-83
2023/09/13 03:34:37;;;;;;;100.10;57.57;;;20.10;1.00;;;;;;5021363;28;20280;-80
2023/09/13 03:37:04;;;;;;;101.90;55.07;;;20.10;1.00;;;;;;5018631;28;20722;-82
2023/09/13 03:39:31;;;;;;;95.83;54.10;;;20.00;1.00;;;;;;5019709;28;20206;-82
2023/09/13 03:41:57;;;;;;;88.63;50.63;;;20.00;1.00;;;;;;5022403;28;20465;-84
2023/09/13 03:44:22;;;;;;;101.20;54.20;;;20.00;1.00;;;;;;5032099;28;20505;-83
2023/09/13 03:46:48;;;;;;;100.43;55.77;;;20.00;1.00;;;;;;5033320;28;20187;-83
2023/09/13 03:49:14;;;;;;;97.17;52.27;;;19.90;1.00;;;;;;5017926;28;20191;-82
2023/09/13 03:51:39;;;;;;;99.80;54.27;;;19.90;1.00;;;;;;5018927;28;20655;-82
2023/09/13 03:54:05;;;;;;;88.80;50.60;;;20.00;1.00;;;;;;5019784;28;20187;-83
2023/09/13 03:56:30;;;;;;;89.30;50.57;;;20.00;1.00;;;;;;5022153;28;20232;-83
2023/09/13 03:58:56;;;;;;;87.70;49.13;;;19.90;1.00;;;;;;5020489;28;20190;-85
2023/09/13 04:01:22;;;;;;;93.47;53.77;;;19.90;1.00;;;;;;5019586;28;20239;-82
2023/09/13 04:03:47;;;;;;;86.00;49.80;;;19.90;1.00;;;;;;5011051;28;20202;-83
2023/09/13 04:06:13;;;;;;;84.03;46.87;;;19.90;1.00;;;;;;5014322;28;20222;-83
2023/09/13 04:08:39;;;;;;;83.83;47.33;;;19.80;1.00;;;;;;5018338;28;20436;-83
2023/09/13 04:11:05;;;;;;;78.30;44.03;;;19.80;1.00;;;;;;5025684;28;20578;-82
2023/09/13 04:13:30;;;;;;;70.93;42.93;;;19.80;1.00;;;;;;5023842;28;20210;-84
2023/09/13 04:16:00;;;;;;;65.83;41.23;;;19.70;1.00;;;;;;5029332;28;20448;-82
2023/09/13 04:18:26;;;;;;;65.30;40.90;;;19.70;1.00;;;;;;5036367;28;20602;-85
2023/09/13 04:20:51;;;;;;;59.97;40.10;;;19.70;1.00;;;;;;5022736;28;20508;-82
2023/09/13 04:23:17;;;;;;;64.90;40.40;;;19.70;1.00;;;;;;5025576;28;20268;-84
2023/09/13 04:25:42;;;;;;;63.03;39.37;;;19.70;1.00;;;;;;5028013;28;20298;-82
2023/09/13 04:28:08;;;;;;;70.70;42.10;;;19.80;1.00;;;;;;5038101;28;20178;-83
2023/09/13 04:30:34;;;;;;;60.90;39.87;;;19.80;1.00;;;;;;5023887;28;20206;-83
2023/09/13 04:33:01;;;;;;;74.70;43.07;;;19.80;1.00;;;;;;5017025;28;20676;-84
2023/09/13 04:35:27;;;;;;;67.73;42.40;;;19.70;1.00;;;;;;5025751;28;20217;-82
2023/09/13 04:37:53;;;;;;;69.10;42.53;;;19.70;1.00;;;;;;5038198;28;20445;-83
2023/09/13 04:40:19;;;;;;;71.33;44.67;;;19.70;1.00;;;;;;5035077;28;20955;-82
2023/09/13 04:43:14;;;;;;;62.23;41.40;;;19.70;1.00;;;;;;5023739;28;20499;-82
2023/09/13 04:45:40;;;;;;;69.10;42.97;;;19.70;1.00;;;;;;5023612;28;20195;-82
2023/09/13 04:48:05;;;;;;;62.13;39.73;;;19.70;1.00;;;;;;5024291;28;20456;-82
2023/09/13 04:50:31;;;;;;;67.97;42.07;;;19.70;1.00;;;;;;5024303;28;20253;-82
2023/09/13 04:52:56;;;;;;;70.80;43.30;;;19.60;1.00;;;;;;5020166;28;20448;-81
2023/09/13 04:55:23;;;;;;;71.10;42.50;;;19.60;1.00;;;;;;5035264;28;20238;-82
2023/09/13 04:57:49;;;;;;;63.03;39.90;;;19.60;1.00;;;;;;5023189;28;20719;-83
2023/09/13 05:00:16;;;;;;;62.40;39.77;;;19.60;1.00;;;;;;5022137;28;20557;-82
2023/09/13 05:02:41;;;;;;;69.17;40.03;;;19.60;1.00;;;;;;5023265;28;21315;-82
2023/09/13 05:05:08;;;;;;;67.27;41.20;;;19.60;1.00;;;;;;5018828;28;20495;-82
2023/09/13 05:07:33;;;;;;;63.83;39.37;;;19.60;1.00;;;;;;5019065;28;20187;-82
2023/09/13 05:09:59;;;;;;;63.27;37.40;;;19.60;1.00;;;;;;5019329;28;20457;-82
2023/09/13 05:12:24;;;;;;;57.33;37.00;;;19.50;1.00;;;;;;5035286;28;20187;-81
2023/09/13 05:14:50;;;;;;;54.83;38.10;;;19.50;1.00;;;;;;5026296;28;20194;-84
2023/09/13 05:17:15;;;;;;;63.03;36.80;;;19.50;1.00;;;;;;5020435;28;20266;-82
2023/09/13 05:19:41;;;;;;;58.73;38.30;;;19.50;1.00;;;;;;5024756;28;20207;-84
2023/09/13 05:22:06;;;;;;;65.40;40.00;;;19.50;1.00;;;;;;5017626;28;20186;-82
2023/09/13 05:24:32;;;;;;;58.90;36.70;;;19.50;1.00;;;;;;5019893;28;20191;-84
2023/09/13 05:26:57;;;;;;;53.40;36.20;;;19.50;1.00;;;;;;5023639;28;20211;-83
2023/09/13 05:29:23;;;;;;;56.23;36.73;;;19.50;1.00;;;;;;5020730;28;20191;-79
2023/09/13 05:31:49;;;;;;;63.33;36.67;;;19.50;1.00;;;;;;5020629;28;20206;-82
2023/09/13 05:34:15;;;;;;;53.60;35.40;;;19.40;1.00;;;;;;5020157;28;20187;-81
2023/09/13 05:36:43;;;;;;;60.23;36.73;;;19.40;1.00;;;;;;5022321;28;21045;-84
2023/09/13 05:39:09;;;;;;;49.37;34.33;;;19.40;1.00;;;;;;5020324;28;20267;-83
2023/09/13 05:41:35;;;;;;;47.00;33.87;;;19.40;1.00;;;;;;5018985;28;20462;-83
2023/09/13 05:44:00;;;;;;;48.63;33.10;;;19.40;1.00;;;;;;5019267;28;20214;-81
2023/09/13 05:46:26;;;;;;;47.13;34.00;;;19.40;1.00;;;;;;5022519;28;20229;-82
2023/09/13 05:48:51;;;;;;;44.57;32.17;;;19.40;1.00;;;;;;5016845;28;20596;-82
2023/09/13 05:51:19;;;;;;;38.53;29.30;;;19.40;1.00;;;;;;5023384;28;20638;-82
2023/09/13 05:53:44;;;;;;;38.10;29.03;;;19.40;1.00;;;;;;5023348;28;20665;-82
2023/09/13 05:56:11;;;;;;;41.23;29.70;;;19.40;1.00;;;;;;5021372;28;20484;-82
2023/09/13 05:58:37;;;;;;;35.00;26.67;;;19.40;1.00;;;;;;5024044;28;20465;-85
2023/09/13 06:01:03;;;;;;;42.10;27.97;;;19.40;1.00;;;;;;5020945;28;20469;-83
2023/09/13 06:03:30;;;;;;;37.50;26.23;;;19.40;1.00;;;;;;5025237;28;20745;-82
2023/09/13 06:05:56;;;;;;;35.83;25.70;;;19.50;1.00;;;;;;5022416;28;20902;-83
2023/09/13 06:08:22;;;;;;;39.13;28.00;;;19.60;1.00;;;;;;5022610;28;21094;-83
2023/09/13 06:10:47;;;;;;;39.57;28.57;;;19.70;1.00;;;;;;5023828;28;20468;-82
2023/09/13 06:13:15;;;;;;;44.20;30.90;;;19.80;1.00;;;;;;5022128;28;20191;-83
2023/09/13 06:15:40;;;;;;;41.90;30.20;;;19.80;1.00;;;;;;5021303;28;20227;-85
2023/09/13 06:18:06;;;;;;;39.43;28.40;;;19.80;1.00;;;;;;5026774;28;20495;-83
2023/09/13 06:20:32;;;;;;;37.73;27.77;;;19.80;1.00;;;;;;5021440;28;20988;-82
2023/09/13 06:22:59;;;;;;;48.73;31.40;;;19.90;1.00;;;;;;5027052;28;20183;-84
2023/09/13 06:25:24;;;;;;;41.20;30.17;;;19.90;1.00;;;;;;5031476;28;20183;-83
2023/09/13 06:27:49;;;;;;;43.23;31.17;;;20.00;1.00;;;;;;5029394;28;20453;-84
2023/09/13 06:30:15;;;;;;;41.83;31.77;;;20.00;1.00;;;;;;5028683;28;20261;-83
2023/09/13 06:32:41;;;;;;;41.20;30.70;;;19.90;1.00;;;;;;5029268;28;20574;-84
2023/09/13 06:35:13;;;;;;;43.57;31.87;;;19.90;1.00;;;;;;5029275;28;20209;-84
2023/09/13 06:37:39;;;;;;;46.80;31.40;;;20.00;1.00;;;;;;5028585;28;20449;-80
2023/09/13 06:40:06;;;;;;;44.40;30.30;;;20.00;1.00;;;;;;5026353;28;20910;-82
2023/09/13 06:42:32;;;;;;;43.63;29.93;;;20.00;1.00;;;;;;5027462;28;20441;-81
2023/09/13 06:44:59;;;;;;;49.60;30.43;;;20.00;1.00;;;;;;5028826;28;20497;-82
2023/09/13 06:47:28;;;;;;;46.70;31.30;;;20.10;1.00;;;;;;5025244;28;20179;-82
2023/09/13 06:49:54;;;;;;;42.27;30.07;;;20.10;1.00;;;;;;5025158;28;21166;-82
2023/09/13 06:52:19;;;;;;;42.07;28.63;;;20.10;1.00;;;;;;5019014;28;20459;-81
2023/09/13 06:54:45;;;;;;;42.63;28.40;;;20.20;1.00;;;;;;5018673;28;20257;-82
2023/09/13 06:57:10;;;;;;;43.97;29.10;;;20.30;99.90;;;;;;5019956;28;20218;-83
2023/09/13 06:59:36;;;;;;;41.50;27.47;;;20.50;99.90;;;;;;5037680;28;20575;-84
2023/09/13 07:02:01;;;;;;;43.80;28.03;;;20.80;99.90;;;;;;5025207;28;20190;-83
2023/09/13 07:04:27;;;;;;;42.07;27.10;;;21.10;1.00;;;;;;5024920;28;20236;-83
2023/09/13 07:06:52;;;;;;;34.93;25.50;;;21.70;99.90;;;;;;5023216;28;20675;-84
2023/09/13 07:09:18;;;;;;;36.67;25.60;;;22.40;1.00;;;;;;5016664;28;20203;-84
2023/09/13 07:11:43;;;;;;;33.00;24.90;;;24.30;1.00;;;;;;5020983;28;20266;-83
2023/09/13 07:14:09;;;;;;;25.70;20.00;;;26.50;99.90;;;;;;5019423;28;20279;-84
2023/09/13 07:16:34;;;;;;;24.83;20.97;;;29.20;1.00;;;;;;5020941;28;20190;-80
2023/09/13 07:19:03;;;;;;;23.93;19.27;;;31.80;1.00;;;;;;5034606;28;20276;-83
2023/09/13 07:21:29;;;;;;;25.40;17.50;;;34.10;1.00;;;;;;5022262;28;20319;-83
2023/09/13 07:23:54;;;;;;;22.43;18.53;;;33.40;1.00;;;;;;5023500;28;20526;-83
2023/09/13 07:26:20;;;;;;;20.23;17.97;;;33.10;1.00;;;;;;5035949;28;20182;-82
2023/09/13 07:28:45;;;;;;;21.10;18.20;;;33.80;1.00;;;;;;5025401;28;20174;-83
2023/09/13 07:31:11;;;;;;;22.10;17.70;;;34.80;1.00;;;;;;5027704;28;20211;-84
2023/09/13 07:33:37;;;;;;;19.67;17.67;;;36.70;1.00;;;;;;5029957;28;20185;-85
2023/09/13 07:36:03;;;;;;;19.10;17.23;;;38.00;1.00;;;;;;5027409;28;20194;-85
2023/09/13 07:38:28;;;;;;;25.50;18.40;;;39.40;1.00;;;;;;5026003;28;20218;-84
2023/09/13 07:40:54;;;;;;;18.43;16.50;;;37.70;1.00;;;;;;5029391;28;20511;-83
2023/09/13 07:43:19;;;;;;;19.33;17.40;;;38.30;1.00;;;;;;5028569;28;20232;-82
2023/09/13 07:45:46;;;;;;;20.30;15.60;;;39.40;1.00;;;;;;5026759;28;20192;-84
2023/09/13 07:48:11;;;;;;;17.17;14.80;;;40.30;1.00;;;;;;5022085;28;20191;-84
2023/09/13 07:50:40;;;;;;;16.47;13.87;;;41.30;1.00;;;;;;5022126;28;20480;-83
2023/09/13 07:53:07;;;;;;;16.60;14.70;;;41.40;1.00;;;;;;5021999;28;20194;-84
2023/09/13 07:55:33;;;;;;;18.47;15.90;;;39.70;99.90;;;;;;5022905;28;20442;-82
2023/09/13 07:57:59;;;;;;;17.40;14.83;;;37.60;99.90;;;;;;5027337;28;20473;-81
2023/09/13 08:00:24;;;;;;;17.33;15.60;;;37.30;99.90;;;;;;5022680;28;20533;-81
2023/09/13 08:02:50;;;;;;;16.47;14.70;;;36.40;99.90;;;;;;5024327;28;20424;-83
2023/09/13 08:05:16;;;;;;;20.60;15.67;;;36.90;99.90;;;;;;5022337;28;20203;-83
2023/09/13 08:07:44;;;;;;;21.03;15.40;;;36.80;99.90;;;;;;5019977;28;20226;-82
2023/09/13 08:10:09;;;;;;;21.10;16.10;;;34.70;99.90;;;;;;5022296;28;20462;-82
2023/09/13 08:12:35;;;;;;;20.40;15.90;;;32.90;99.90;;;;;;5020779;28;20861;-83
2023/09/13 08:15:00;;;;;;;21.00;18.20;;;31.30;99.90;;;;;;5017638;28;20195;-83
2023/09/13 08:17:26;;;;;;;22.80;15.77;;;30.10;99.90;;;;;;5017762;28;20188;-80
2023/09/13 08:19:51;;;;;;;22.00;17.80;;;28.70;99.90;;;;;;5019162;28;20229;-81
2023/09/13 08:22:17;;;;;;;23.57;16.90;;;27.90;99.90;;;;;;5017230;28;20240;-82
2023/09/13 08:24:43;;;;;;;24.07;17.20;;;27.20;1.00;;;;;;5025673;28;20183;-81
2023/09/13 08:27:08;;;;;;;22.73;17.80;;;26.50;1.00;;;;;;5016394;28;20452;-81
2023/09/13 08:29:35;;;;;;;25.63;17.00;;;25.90;1.00;;;;;;5014829;28;20253;-80
2023/09/13 08:32:00;;;;;;;26.67;17.90;;;25.40;1.00;;;;;;5019754;28;20226;-81
2023/09/13 08:34:26;;;;;;;24.87;17.90;;;24.90;1.00;;;;;;5019270;28;20599;-81
2023/09/13 08:36:55;;;;;;;20.80;16.70;;;24.60;1.00;;;;;;5024110;28;20560;-80
2023/09/13 08:39:20;;;;;;;24.33;17.80;;;24.30;1.00;;;;;;5029157;28;20183;-81
2023/09/13 08:41:50;;;;;;;22.77;17.93;;;24.10;99.90;;;;;;5026487;28;20461;-81
2023/09/13 08:44:18;;;;;;;23.50;18.50;;;24.00;99.90;;;;;;5031340;28;20175;-82
2023/09/13 08:46:45;;;;;;;22.20;16.70;;;23.80;99.90;;;;;;5028407;28;20445;-81
2023/09/13 08:49:11;;;;;;;27.83;17.37;;;23.60;99.90;;;;;;5030848;28;20448;-81
2023/09/13 08:51:37;;;;;;;24.37;17.77;;;23.60;99.90;;;;;;5032124;28;20485;-81
2023/09/13 08:54:04;;;;;;;21.70;15.60;;;23.60;99.90;;;;;;5032375;28;20935;-81
2023/09/13 08:56:31;;;;;;;26.23;17.93;;;23.60;99.90;;;;;;5032938;28;20213;-81
2023/09/13 08:58:57;;;;;;;19.87;15.27;;;23.70;99.90;;;;;;5027711;28;20448;-81
2023/09/13 09:01:25;;;;;;;19.23;15.60;;;23.90;99.90;;;;;;5047431;28;20476;-81
2023/09/13 09:03:51;;;;;;;21.90;16.10;;;24.30;99.90;;;;;;5033842;28;20222;-81
2023/09/13 09:06:18;;;;;;;19.93;14.03;;;24.60;99.90;;;;;;5034272;28;20449;-82
2023/09/13 09:08:45;;;;;;;19.30;14.77;;;25.70;1.00;;;;;;5032187;28;20438;-81
2023/09/13 09:11:11;;;;;;;20.50;14.93;;;26.10;1.00;;;;;;5035587;28;20473;-81
2023/09/13 09:13:42;;;;;;;24.73;17.00;;;26.10;1.00;;;;;;5036465;28;20437;-82
2023/09/13 09:16:09;;;;;;;20.20;13.50;;;26.10;1.00;;;;;;5036111;28;20664;-82
2023/09/13 09:18:38;;;;;;;18.17;14.57;;;26.20;1.00;;;;;;5031191;28;21106;-83
2023/09/13 09:21:04;;;;;;;23.00;14.37;;;26.30;1.00;;;;;;5036470;28;20485;-82
2023/09/13 09:23:31;;;;;;;20.67;15.80;;;26.20;1.00;;;;;;5033464;28;20467;-82
2023/09/13 09:25:56;;;;;;;20.20;14.13;;;26.30;1.00;;;;;;5033510;28;20183;-82
2023/09/13 09:28:23;;;;;;;22.00;15.10;;;26.60;1.00;;;;;;5034912;28;20452;-82
2023/09/13 09:30:51;;;;;;;19.07;13.70;;;26.50;1.00;;;;;;5026021;28;20290;-80
2023/09/13 09:33:29;;;;;;;18.40;13.97;;;26.50;1.00;;;;;;5037603;28;20467;-78
2023/09/13 09:35:56;;;;;;;17.53;14.20;;;26.40;1.00;;;;;;5033235;28;20437;-80
2023/09/13 09:38:24;;;;;;;18.83;14.30;;;26.10;1.00;;;;;;5037100;28;20441;-80
2023/09/13 09:40:50;;;;;;;17.63;14.23;;;25.80;1.00;;;;;;5036673;28;20482;-80
2023/09/13 09:43:16;;;;;;;20.50;14.40;;;25.60;1.00;;;;;;5036763;28;20871;-80
2023/09/13 09:45:42;;;;;;;18.67;13.77;;;25.40;1.00;;;;;;5036869;28;20487;-80
2023/09/13 09:48:08;;;;;;;20.83;14.63;;;25.30;1.00;;;;;;5037037;28;20441;-82
2023/09/13 09:50:34;;;;;;;19.80;15.00;;;25.40;1.00;;;;;;5032507;28;20465;-81
2023/09/13 09:53:08;;;;;;;18.67;14.07;;;25.40;1.00;;;;;;5035497;28;20942;-82
2023/09/13 09:55:35;;;;;;;19.57;13.60;;;25.90;1.00;;;;;;5053089;28;20241;-82
2023/09/13 09:58:01;;;;;;;16.53;12.60;;;27.00;1.00;;;;;;5038635;28;20431;-82
2023/09/13 10:00:27;;;;;;;17.53;13.43;;;28.80;1.00;;;;;;5036621;28;20476;-84
2023/09/13 10:02:55;;;;;;;18.93;12.87;;;29.10;1.00;;;;;;5038110;28;20481;-82
2023/09/13 10:05:21;;;;;;;15.50;13.27;;;29.00;1.00;;;;;;5038525;28;20206;-82
2023/09/13 10:07:58;;;;;;;20.00;13.27;;;28.70;1.00;;;;;;5037199;28;20477;-82
2023/09/13 10:10:33;;;;;;;15.83;11.67;;;29.70;1.00;;;;;;5027367;28;20887;-83
2023/09/13 10:12:59;;;;;;;14.40;11.97;;;30.10;1.00;;;;;;5038190;28;20430;-83
2023/09/13 10:15:25;;;;;;;15.80;13.17;;;30.00;1.00;;;;;;5033870;28;21009;-81
2023/09/13 10:17:54;;;;;;;15.57;12.70;;;29.50;1.00;;;;;;5029727;28;20213;-83
2023/09/13 10:20:21;;;;;;;16.93;12.23;;;29.00;1.00;;;;;;5029064;28;20483;-83
2023/09/13 10:22:49;;;;;;;16.33;11.70;;;28.50;1.00;;;;;;5037115;28;20470;-83
2023/09/13 10:25:17;;;;;;;15.47;11.83;;;28.10;1.00;;;;;;5035687;28;20456;-80
2023/09/13 10:27:48;;;;;;;13.10;10.60;;;27.70;1.00;;;;;;5035949;28;20486;-82
2023/09/13 10:30:21;;;;;;;14.40;11.73;;;27.30;1.00;;;;;;5035723;28;20465;-83
2023/09/13 10:32:50;;;;;;;16.00;11.57;;;26.80;1.00;;;;;;5036479;28;20468;-82
2023/09/13 10:35:18;;;;;;;14.87;11.63;;;26.40;1.00;;;;;;5042337;28;20440;-80
2023/09/13 10:38:06;;;;;;;15.00;12.70;;;26.20;1.00;;;;;;5051567;28;20437;-82
2023/09/13 10:40:59;;;;;;;17.80;12.80;;;25.90;1.00;;;;;;5045950;28;20473;-82
2023/09/13 10:43:26;;;;;;;54.37;18.20;;;25.70;1.00;;;;;;5031855;28;20453;-81
2023/09/13 10:45:52;;;;;;;27.37;16.03;;;25.60;1.00;;;;;;5032330;28;20430;-82
2023/09/13 10:48:19;;;;;;;18.03;12.03;;;25.60;1.00;;;;;;5034628;28;20491;-80
2023/09/13 10:50:45;;;;;;;19.77;13.47;;;25.60;1.00;;;;;;5034957;28;21054;-82
2023/09/13 10:53:14;;;;;;;16.93;13.67;;;25.40;1.00;;;;;;5034624;28;20480;-81
2023/09/13 10:55:39;;;;;;;20.37;15.23;;;25.10;1.00;;;;;;5033716;28;20934;-82
2023/09/13 10:58:08;;;;;;;17.73;14.47;;;24.60;1.00;;;;;;5033068;28;20453;-82
2023/09/13 11:00:34;;;;;;;22.13;15.43;;;24.30;1.00;;;;;;5031416;28;20225;-82
2023/09/13 11:03:00;;;;;;;15.50;8.83;;;23.90;96.00;;;;;;5034321;28;20471;-81
2023/09/13 11:05:27;;;;;;;4.43;3.47;;;23.60;99.90;;;;;;5033552;28;20825;-81
2023/09/13 11:07:52;;;;;;;2.83;2.10;;;23.50;99.90;;;;;;5034784;28;20208;-81
2023/09/13 11:10:19;;;;;;;2.60;2.00;;;23.20;99.90;;;;;;5034857;28;20444;-80
2023/09/13 11:12:48;;;;;;;2.57;1.60;;;23.30;99.90;;;;;;5034816;28;20179;-82
2023/09/13 11:15:21;;;;;;;1.93;1.20;;;23.00;1.00;;;;;;5033590;28;20972;-81
2023/09/13 11:17:47;;;;;;;1.80;1.30;;;22.90;1.00;;;;;;5032374;28;20799;-82
2023/09/13 11:20:40;;;;;;;2.50;1.33;;;22.80;1.00;;;;;;5032989;28;20477;-82
2023/09/13 11:23:15;;;;;;;2.40;1.50;;;22.60;1.00;;;;;;5033020;28;21385;-81
2023/09/13 11:25:47;;;;;;;2.40;1.50;;;22.60;1.00;;;;;;5033950;28;20417;-81
2023/09/13 11:28:36;;;;;;;3.20;1.50;;;22.50;1.00;;;;;;5048515;28;20429;-81
2023/09/13 11:31:03;;;;;;;4.97;1.90;;;22.40;1.00;;;;;;5032438;28;20453;-82
2023/09/13 11:33:30;;;;;;;2.43;2.13;;;22.20;1.00;;;;;;5045744;28;20427;-81
2023/09/13 11:35:58;;;;;;;1.97;1.77;;;22.20;1.00;;;;;;5024516;28;20437;-81
2023/09/13 11:38:26;;;;;;;2.73;1.90;;;22.20;7.60;;;;;;5047924;28;20505;-81
2023/09/13 11:40:56;;;;;;;4.50;2.23;;;22.20;1.20;;;;;;5029649;28;20477;-81
2023/09/13 11:43:23;;;;;;;2.90;2.00;;;22.20;1.00;;;;;;5032720;28;20440;-80
2023/09/13 11:45:50;;;;;;;3.23;2.17;;;22.20;1.00;;;;;;5033602;28;20751;-80
2023/09/13 11:48:31;;;;;;;3.67;2.47;;;22.10;1.00;;;;;;5032990;28;20417;-81
2023/09/13 11:51:12;;;;;;;4.50;2.60;;;22.10;99.90;;;;;;5032050;28;20457;-82
2023/09/13 11:53:38;;;;;;;3.20;2.33;;;22.20;99.90;;;;;;5023126;28;20524;-82
2023/09/13 11:56:04;;;;;;;3.40;2.60;;;22.20;99.90;;;;;;5029845;28;20476;-82
2023/09/13 11:58:36;;;;;;;3.50;2.70;;;22.30;99.90;;;;;;5031326;28;20702;-82
2023/09/13 12:01:06;;;;;;;2.60;2.40;;;22.40;99.90;;;;;;5033364;28;20213;-82
2023/09/13 12:03:35;;;;;;;3.00;2.35;;;22.60;99.90;;;;;;5029721;28;20427;-82
2023/09/13 12:06:02;;;;;;;4.43;2.50;;;22.70;12.80;;;;;;5035263;28;20178;-83
2023/09/13 12:08:29;;;;;;;5.07;2.80;;;22.80;1.00;;;;;;5024825;28;20441;-84
2023/09/13 12:11:00;;;;;;;3.30;2.30;;;22.90;1.00;;;;;;5033501;28;20453;-84
2023/09/13 12:13:48;;;;;;;4.33;2.30;;;23.00;1.00;;;;;;5029282;28;20449;-80
2023/09/13 12:16:15;;;;;;;3.27;2.50;;;23.00;1.00;;;;;;5049868;28;20452;-79
2023/09/13 12:18:42;;;;;;;3.00;2.03;;;23.00;1.00;;;;;;5026852;28;20448;-80
2023/09/13 12:21:09;;;;;;;3.07;2.07;;;23.00;1.00;;;;;;5032507;28;20477;-79
2023/09/13 12:23:46;;;;;;;2.77;2.10;;;23.10;1.00;;;;;;5034675;28;20433;-81
2023/09/13 12:26:16;;;;;;;3.03;1.93;;;23.20;99.90;;;;;;5035783;28;20405;-81
2023/09/13 12:28:43;;;;;;;6.20;2.13;;;23.30;99.90;;;;;;5050876;28;20506;-80
2023/09/13 12:31:10;;;;;;;5.60;2.90;;;23.50;99.90;;;;;;5035020;28;20480;-80
2023/09/13 12:33:37;;;;;;;4.60;2.30;;;23.70;99.90;;;;;;5035583;28;20875;-78
2023/09/13 12:36:03;;;;;;;3.57;2.47;;;23.80;99.90;;;;;;5037820;28;20436;-81
2023/09/13 12:38:41;;;;;;;3.30;2.07;;;23.90;99.90;;;;;;5039325;28;20476;-81